Time;durP1;ratioP1;P1;durP2;ratioP2;P2;SDS_P1;SDS_P2;PMS_P1;PMS_P2;Temp;Humidity;BMP_temperature;BMP_pressure;BME280_temperature;BME280_humidity;BME280_pressure;Samples;Min_cycle;Max_cycle;Signal;HPM_P1;HPM_P2
2023/05/09 00:01:13;;;;;;;11.00;9.70;;;;;;;12.02;100.00;99763.59;5031607;28;20551;-71
2023/05/09 00:03:39;;;;;;;11.40;9.70;;;;;;;12.04;100.00;99763.25;5030721;28;20507;-70
2023/05/09 00:06:05;;;;;;;13.05;10.48;;;;;;;12.04;100.00;99763.25;5031663;28;20053;-70
2023/05/09 00:08:31;;;;;;;12.13;10.35;;;;;;;11.99;100.00;99752.19;5025089;28;20103;-70
2023/05/09 00:10:57;;;;;;;12.82;10.40;;;;;;;11.97;100.00;99754.53;5011884;28;20485;-71
2023/05/09 00:13:23;;;;;;;13.30;11.65;;;;;;;11.96;100.00;99756.50;5011037;28;20404;-71
2023/05/09 00:15:52;;;;;;;14.15;10.73;;;;;;;11.97;100.00;99755.31;5024508;28;20029;-70
2023/05/09 00:18:18;;;;;;;14.13;10.63;;;;;;;11.92;100.00;99761.94;5030395;28;20029;-70
2023/05/09 00:20:44;;;;;;;13.18;10.60;;;;;;;11.82;100.00;99761.50;5031287;28;20021;-70
2023/05/09 00:23:09;;;;;;;14.20;11.50;;;;;;;11.89;100.00;99759.81;5030608;28;20022;-71
2023/05/09 00:25:35;;;;;;;12.15;10.85;;;;;;;11.97;100.00;99762.94;5030229;28;20076;-71
2023/05/09 00:28:00;;;;;;;15.50;11.45;;;;;;;11.97;100.00;99754.53;5031320;28;20476;-71
2023/05/09 00:30:25;;;;;;;12.07;10.77;;;;;;;12.05;100.00;99753.66;5031307;28;20033;-70
2023/05/09 00:32:51;;;;;;;16.60;12.30;;;;;;;12.12;100.00;99768.00;5017594;28;20050;-71
2023/05/09 00:35:16;;;;;;;12.90;10.38;;;;;;;12.10;100.00;99764.69;5017423;28;20484;-71
2023/05/09 00:37:42;;;;;;;11.98;10.50;;;;;;;12.07;100.00;99766.19;5028558;28;20405;-71
2023/05/09 00:40:08;;;;;;;13.00;11.70;;;;;;;12.06;100.00;99767.34;5020356;28;20018;-70
2023/05/09 00:42:34;;;;;;;12.63;11.32;;;;;;;11.95;100.00;99774.47;5029761;28;20052;-71
2023/05/09 00:45:00;;;;;;;13.23;11.82;;;;;;;11.90;100.00;99764.25;5031067;28;20064;-71
2023/05/09 00:47:27;;;;;;;15.63;11.95;;;;;;;11.99;100.00;99767.03;5030885;28;20077;-71
2023/05/09 00:49:52;;;;;;;13.75;11.68;;;;;;;11.97;100.00;99766.53;5028885;28;20021;-71
2023/05/09 00:52:22;;;;;;;15.10;13.05;;;;;;;11.87;100.00;99769.72;5029260;28;20029;-71
2023/05/09 00:54:51;;;;;;;16.58;13.50;;;;;;;11.94;100.00;99773.66;5022250;28;20030;-71
2023/05/09 00:57:16;;;;;;;17.50;13.90;;;;;;;11.93;100.00;99765.59;5011332;28;20022;-71
2023/05/09 00:59:42;;;;;;;17.40;13.45;;;;;;;11.92;100.00;99769.53;5019008;28;20041;-71
2023/05/09 01:02:07;;;;;;;21.95;15.50;;;;;;;11.93;100.00;99766.38;5030983;28;20473;-71
2023/05/09 01:04:33;;;;;;;17.88;15.07;;;;;;;11.91;100.00;99765.09;5030996;28;20025;-71
2023/05/09 01:07:09;;;;;;;15.65;13.20;;;;;;;11.83;100.00;99761.19;5027914;28;20444;-70
2023/05/09 01:10:00;;;;;;;18.63;15.18;;;;;;;11.77;100.00;99759.72;5015800;28;20100;-71
2023/05/09 01:12:47;;;;;;;20.23;15.27;;;;;;;11.77;100.00;99771.75;5027329;28;20033;-70
2023/05/09 01:15:23;;;;;;;20.25;15.73;;;;;;;11.77;100.00;99776.53;5026786;28;20566;-71
2023/05/09 01:18:16;;;;;;;19.60;15.70;;;;;;;11.86;100.00;99785.72;5011203;28;20092;-71
2023/05/09 01:21:10;;;;;;;21.83;16.73;;;;;;;11.84;100.00;99787.22;5010982;28;20018;-70
2023/05/09 01:24:13;;;;;;;27.00;18.20;;;;;;;11.85;100.00;99780.44;5025638;28;20033;-70
2023/05/09 01:27:01;;;;;;;25.45;18.63;;;;;;;11.80;100.00;99778.66;5016011;28;20036;-70
2023/05/09 01:29:36;;;;;;;26.08;18.23;;;;;;;11.82;100.00;99776.31;5033630;28;20033;-70
2023/05/09 01:32:07;;;;;;;25.60;19.67;;;;;;;11.93;100.00;99774.78;5034268;28;21946;-70
2023/05/09 01:34:34;;;;;;;25.98;18.98;;;;;;;11.94;100.00;99778.44;5033167;28;20029;-70
2023/05/09 01:37:03;;;;;;;21.45;17.00;;;;;;;11.94;100.00;99779.28;5033414;28;20025;-70
2023/05/09 01:39:31;;;;;;;23.38;18.23;;;;;;;11.90;100.00;99781.09;5032006;28;20404;-71
2023/05/09 01:42:03;;;;;;;27.67;18.02;;;;;;;11.87;100.00;99781.75;5034254;28;20029;-70
2023/05/09 01:44:34;;;;;;;24.25;18.48;;;;;;;11.88;100.00;99786.22;5018928;28;20029;-70
2023/05/09 01:47:01;;;;;;;25.27;17.70;;;;;;;11.79;100.00;99791.84;5026182;28;20041;-71
2023/05/09 01:49:32;;;;;;;24.00;18.30;;;;;;;11.81;100.00;99799.91;5033435;28;20061;-71
2023/05/09 01:52:00;;;;;;;22.17;16.73;;;;;;;11.74;100.00;99789.22;5033947;28;20028;-71
2023/05/09 01:54:27;;;;;;;20.08;16.38;;;;;;;11.75;100.00;99793.66;5034162;28;20511;-71
2023/05/09 01:56:54;;;;;;;23.35;17.00;;;;;;;11.60;100.00;99792.25;5031869;28;20036;-71
2023/05/09 01:59:21;;;;;;;23.42;18.42;;;;;;;11.73;100.00;99798.78;5033935;28;20029;-71
2023/05/09 02:01:48;;;;;;;25.33;19.13;;;;;;;11.84;100.00;99802.06;5020726;28;20037;-71
2023/05/09 02:04:15;;;;;;;25.13;18.38;;;;;;;11.71;100.00;99795.50;5012785;28;20041;-71
2023/05/09 02:06:43;;;;;;;20.70;16.27;;;;;;;11.64;100.00;99796.03;5030210;28;20068;-71
2023/05/09 02:09:10;;;;;;;23.17;16.27;;;;;;;11.70;100.00;99804.22;5032541;28;20043;-71
2023/05/09 02:11:35;;;;;;;22.88;18.33;;;;;;;11.59;100.00;99799.00;5033654;28;20030;-71
2023/05/09 02:14:01;;;;;;;25.73;19.13;;;;;;;11.54;100.00;99799.19;5030820;28;20404;-71
2023/05/09 02:16:27;;;;;;;24.92;18.58;;;;;;;11.50;100.00;99799.00;5031450;28;20045;-71
2023/05/09 02:18:52;;;;;;;25.80;19.42;;;;;;;11.56;100.00;99796.84;5031633;28;20028;-71
2023/05/09 02:21:18;;;;;;;26.38;19.55;;;;;;;11.65;100.00;99808.06;5033440;28;20350;-71
2023/05/09 02:23:43;;;;;;;27.63;19.45;;;;;;;11.54;100.00;99798.38;5018730;28;20092;-71
2023/05/09 02:26:09;;;;;;;24.02;18.48;;;;;;;11.57;100.00;99797.69;5020229;28;20148;-71
2023/05/09 02:28:37;;;;;;;23.42;16.42;;;;;;;11.57;100.00;99792.91;5013794;28;20029;-71
2023/05/09 02:31:05;;;;;;;22.52;16.63;;;;;;;11.50;100.00;99792.59;5020101;28;20401;-71
2023/05/09 02:33:33;;;;;;;21.85;16.63;;;;;;;11.66;100.00;99804.09;5031924;28;20084;-71
2023/05/09 02:35:59;;;;;;;21.10;16.55;;;;;;;11.65;100.00;99808.88;5030579;28;20536;-71
2023/05/09 02:38:26;;;;;;;22.52;16.38;;;;;;;11.59;100.00;99807.41;5033272;28;20021;-71
2023/05/09 02:40:52;;;;;;;20.27;16.02;;;;;;;11.74;100.00;99819.25;5032279;28;20109;-71
2023/05/09 02:43:17;;;;;;;20.25;16.30;;;;;;;11.67;100.00;99814.16;5031367;28;20060;-71
2023/05/09 02:45:43;;;;;;;21.90;15.32;;;;;;;11.65;100.00;99822.88;5033326;28;20056;-71
2023/05/09 02:48:09;;;;;;;21.45;16.13;;;;;;;11.71;100.00;99825.53;5025256;28;20064;-71
2023/05/09 02:50:34;;;;;;;20.77;16.40;;;;;;;11.66;100.00;99823.72;5013346;28;20030;-71
2023/05/09 02:53:00;;;;;;;24.83;16.52;;;;;;;11.70;100.00;99829.44;5013061;28;20026;-71
2023/05/09 02:55:25;;;;;;;20.50;16.48;;;;;;;11.76;100.00;99819.72;5016191;28;20038;-71
2023/05/09 02:57:51;;;;;;;20.85;15.40;;;;;;;11.68;100.00;99823.34;5012934;28;20026;-71
2023/05/09 03:00:17;;;;;;;25.10;16.88;;;;;;;11.70;100.00;99829.44;5012921;28;20029;-71
2023/05/09 03:02:42;;;;;;;21.88;16.23;;;;;;;11.69;100.00;99833.41;5013094;28;20022;-71
2023/05/09 03:05:08;;;;;;;23.98;16.10;;;;;;;11.69;100.00;99828.63;5019018;28;20116;-71
2023/05/09 03:07:34;;;;;;;24.20;17.23;;;;;;;11.70;100.00;99832.25;5032646;28;20072;-71
2023/05/09 03:09:59;;;;;;;18.35;14.93;;;;;;;11.74;100.00;99836.84;5025424;28;20083;-71
2023/05/09 03:12:25;;;;;;;22.75;16.13;;;;;;;11.75;100.00;99834.88;5012621;28;20037;-71
2023/05/09 03:14:50;;;;;;;20.98;16.77;;;;;;;11.68;100.00;99837.38;5012870;28;20527;-71
2023/05/09 03:17:19;;;;;;;21.15;16.15;;;;;;;11.69;100.00;99844.63;5012869;28;20428;-71
2023/05/09 03:19:47;;;;;;;20.60;15.73;;;;;;;11.70;100.00;99852.69;5028097;28;20029;-71
2023/05/09 03:22:12;;;;;;;29.55;16.60;;;;;;;11.79;100.00;99855.47;5018773;28;20017;-71
2023/05/09 03:24:38;;;;;;;20.40;15.45;;;;;;;11.84;100.00;99858.13;5024037;28;20041;-71
2023/05/09 03:27:03;;;;;;;27.95;16.67;;;;;;;11.87;100.00;99859.41;5031994;28;20029;-71
2023/05/09 03:29:29;;;;;;;25.75;17.58;;;;;;;11.74;100.00;99859.28;5030754;28;20022;-72
2023/05/09 03:31:54;;;;;;;21.67;16.30;;;;;;;11.65;100.00;99858.50;5030421;28;20033;-71
2023/05/09 03:34:20;;;;;;;25.38;16.90;;;;;;;11.49;100.00;99858.19;5022568;28;20037;-72
2023/05/09 03:36:45;;;;;;;22.55;16.35;;;;;;;11.51;100.00;99851.06;5012367;28;20030;-71
2023/05/09 03:39:11;;;;;;;25.52;17.73;;;;;;;11.55;100.00;99861.63;5018267;28;20108;-71
2023/05/09 03:41:36;;;;;;;22.52;18.08;;;;;;;11.57;100.00;99850.91;5012283;28;20029;-71
2023/05/09 03:44:03;;;;;;;21.35;16.73;;;;;;;11.60;100.00;99859.50;5025410;28;20060;-71
2023/05/09 03:46:29;;;;;;;23.58;17.90;;;;;;;11.62;100.00;99851.56;5013962;28;20068;-70
2023/05/09 03:48:54;;;;;;;19.40;16.15;;;;;;;11.76;100.00;99872.97;5013899;28;20030;-70
2023/05/09 03:51:20;;;;;;;26.10;17.77;;;;;;;11.72;100.00;99864.41;5031860;28;20032;-70
2023/05/09 03:53:46;;;;;;;22.15;17.00;;;;;;;11.61;100.00;99866.75;5029956;28;20025;-70
2023/05/09 03:56:12;;;;;;;26.33;18.92;;;;;;;11.57;100.00;99865.75;5020226;28;20605;-70
2023/05/09 03:58:38;;;;;;;24.42;18.08;;;;;;;11.58;100.00;99872.19;5031672;28;20096;-70
2023/05/09 04:01:04;;;;;;;31.48;18.73;;;;;;;11.62;100.00;99867.53;5030478;28;20108;-69
2023/05/09 04:03:29;;;;;;;24.63;18.17;;;;;;;11.59;100.00;99869.06;5025298;28;20025;-70
2023/05/09 04:05:55;;;;;;;25.42;18.27;;;;;;;11.54;100.00;99872.00;5010657;28;20080;-70
2023/05/09 04:08:20;;;;;;;28.55;19.88;;;;;;;11.55;100.00;99868.06;5010397;28;20029;-72
2023/05/09 04:10:46;;;;;;;26.20;18.70;;;;;;;11.59;100.00;99879.41;5024095;28;20022;-72
2023/05/09 04:13:11;;;;;;;28.13;20.55;;;;;;;11.53;100.00;99875.97;5018940;28;20026;-71
2023/05/09 04:15:37;;;;;;;30.63;20.00;;;;;;;11.55;100.00;99879.25;5031345;28;20036;-72
2023/05/09 04:18:02;;;;;;;30.73;20.50;;;;;;;11.54;100.00;99871.19;5021142;28;20029;-72
2023/05/09 04:20:28;;;;;;;26.92;19.70;;;;;;;11.51;100.00;99884.69;5030496;28;20037;-72
2023/05/09 04:22:54;;;;;;;26.80;19.73;;;;;;;11.54;100.00;99886.00;5030671;28;20048;-71
2023/05/09 04:25:19;;;;;;;27.23;19.88;;;;;;;11.54;100.00;99882.41;5031345;28;20022;-72
2023/05/09 04:27:45;;;;;;;28.05;19.85;;;;;;;11.52;100.00;99883.56;5025782;28;20029;-72
2023/05/09 04:30:11;;;;;;;28.30;19.27;;;;;;;11.47;100.00;99872.50;5015524;28;20125;-71
2023/05/09 04:32:37;;;;;;;25.65;19.55;;;;;;;11.51;100.00;99881.88;5023519;28;20021;-71
2023/05/09 04:35:03;;;;;;;23.88;19.23;;;;;;;11.49;100.00;99887.00;5022750;28;20029;-71
2023/05/09 04:37:30;;;;;;;28.33;21.60;;;;;;;11.47;100.00;99882.91;5017809;28;20108;-71
2023/05/09 04:39:56;;;;;;;34.10;20.80;;;;;;;11.48;100.00;99885.38;5015779;28;20028;-72
2023/05/09 04:42:21;;;;;;;29.17;20.15;;;;;;;11.44;100.00;99883.56;5014258;28;20018;-72
2023/05/09 04:44:48;;;;;;;27.80;21.35;;;;;;;11.45;100.00;99890.78;5021613;28;20025;-72
2023/05/09 04:47:13;;;;;;;29.55;22.10;;;;;;;11.48;100.00;99890.16;5015781;28;20060;-72
2023/05/09 04:49:39;;;;;;;29.30;21.02;;;;;;;11.52;100.00;99893.94;5014393;28;20022;-72
2023/05/09 04:52:05;;;;;;;30.05;22.48;;;;;;;11.56;100.00;99892.09;5025825;28;20405;-72
2023/05/09 04:54:31;;;;;;;32.50;23.38;;;;;;;11.53;100.00;99898.38;5023778;28;20116;-72
2023/05/09 04:56:57;;;;;;;31.75;21.65;;;;;;;11.53;100.00;99898.38;5017796;28;20536;-72
2023/05/09 04:59:22;;;;;;;33.13;22.05;;;;;;;11.64;100.00;99893.25;5019802;28;20130;-72
2023/05/09 05:01:48;;;;;;;32.42;20.55;;;;;;;11.52;100.00;99891.13;5022863;28;20021;-71
2023/05/09 05:04:13;;;;;;;31.42;21.63;;;;;;;11.55;100.00;99898.88;5026785;28;20417;-71
2023/05/09 05:06:39;;;;;;;32.10;22.40;;;;;;;11.60;100.00;99893.09;5015258;28;20507;-71
2023/05/09 05:09:04;;;;;;;33.20;22.33;;;;;;;11.63;100.00;99894.41;5014929;28;20029;-71
2023/05/09 05:11:30;;;;;;;33.47;22.10;;;;;;;11.64;100.00;99905.28;5015317;28;20472;-72
2023/05/09 05:13:55;;;;;;;30.23;22.90;;;;;;;11.60;100.00;99901.50;5018866;28;20033;-72
2023/05/09 05:16:21;;;;;;;33.65;21.67;;;;;;;11.60;100.00;99895.06;5015061;28;20025;-71
2023/05/09 05:18:46;;;;;;;31.05;21.08;;;;;;;11.47;100.00;99894.94;5022806;28;20500;-72
2023/05/09 05:21:12;;;;;;;35.92;23.92;;;;;;;11.53;100.00;99901.19;5017859;28;20045;-70
2023/05/09 05:23:37;;;;;;;33.92;24.13;;;;;;;11.43;100.00;99893.94;5024544;28;20051;-71
2023/05/09 05:26:03;;;;;;;44.90;24.80;;;;;;;11.40;100.00;99897.38;5022212;28;20018;-70
2023/05/09 05:28:28;;;;;;;33.28;21.65;;;;;;;11.43;100.00;99902.34;5020210;28;20071;-71
2023/05/09 05:30:54;;;;;;;35.95;25.20;;;;;;;11.50;100.00;99908.25;5024791;28;20484;-69
2023/05/09 05:33:19;;;;;;;32.97;21.10;;;;;;;11.46;100.00;99907.28;5031995;28;20021;-70
2023/05/09 05:35:45;;;;;;;28.33;20.95;;;;;;;11.52;100.00;99905.97;5019369;28;20032;-70
2023/05/09 05:38:10;;;;;;;34.97;20.65;;;;;;;11.44;100.00;99905.97;5019740;28;20455;-70
2023/05/09 05:40:36;;;;;;;33.53;23.30;;;;;;;11.48;100.00;99906.97;5031567;28;20040;-70
2023/05/09 05:43:04;;;;;;;36.28;23.95;;;;;;;11.52;100.00;99913.53;5031584;28;20029;-69
2023/05/09 05:45:30;;;;;;;38.92;23.83;;;;;;;11.62;100.00;99915.16;5028421;28;20100;-70
2023/05/09 05:47:55;;;;;;;34.75;23.50;;;;;;;11.47;100.00;99906.13;5015323;28;20045;-71
2023/05/09 05:50:21;;;;;;;31.08;20.23;;;;;;;11.48;100.00;99912.56;5027363;28;20135;-71
2023/05/09 05:52:46;;;;;;;32.88;21.50;;;;;;;11.50;100.00;99911.06;5036906;28;20051;-71
2023/05/09 05:55:11;;;;;;;33.67;20.00;;;;;;;11.46;100.00;99914.84;5020462;28;20095;-71
2023/05/09 05:57:38;;;;;;;30.63;22.52;;;;;;;11.38;100.00;99911.75;5017139;28;20021;-71
2023/05/09 06:00:08;;;;;;;29.45;22.10;;;;;;;11.30;100.00;99906.97;5024516;28;20034;-71
2023/05/09 06:02:33;;;;;;;;;;;;;;;11.34;100.00;99915.53;5019105;28;20021;-71
2023/05/09 06:04:59;;;;;;;29.98;19.95;;;;;;;11.35;100.00;99917.16;5013971;28;20368;-71
2023/05/09 06:07:24;;;;;;;38.83;23.95;;;;;;;11.29;100.00;99910.91;5020389;28;20037;-71
2023/05/09 06:09:50;;;;;;;35.40;21.30;;;;;;;11.24;100.00;99913.88;5016153;28;20040;-71
2023/05/09 06:12:15;;;;;;;33.47;23.58;;;;;;;11.19;100.00;99911.22;5016754;28;20056;-72
2023/05/09 06:14:41;;;;;;;37.00;25.02;;;;;;;11.20;100.00;99918.47;5019649;28;20071;-71
2023/05/09 06:17:07;;;;;;;38.85;24.65;;;;;;;11.22;100.00;99917.00;5027480;28;20018;-71
2023/05/09 06:19:33;;;;;;;35.83;22.98;;;;;;;11.19;100.00;99922.44;5019598;28;20025;-71
2023/05/09 06:21:58;;;;;;;33.85;20.80;;;;;;;11.22;100.00;99918.97;5018626;28;20032;-71
2023/05/09 06:24:24;;;;;;;34.50;23.40;;;;;;;11.31;100.00;99922.59;5013286;28;20501;-71
2023/05/09 06:26:49;;;;;;;32.67;20.05;;;;;;;11.38;100.00;99920.13;5021818;28;20022;-71
2023/05/09 06:29:15;;;;;;;30.33;20.05;;;;;;;11.31;100.00;99924.59;5016533;28;20504;-71
2023/05/09 06:31:41;;;;;;;34.53;19.80;;;;;;;11.37;100.00;99918.50;5014200;28;20030;-71
2023/05/09 06:34:07;;;;;;;34.40;19.27;;;;;;;11.17;100.00;99914.38;5023311;28;20028;-71
2023/05/09 06:36:33;;;;;;;28.77;17.40;;;;;;;11.20;100.00;99924.06;5020931;28;20028;-71
2023/05/09 06:38:59;;;;;;;24.25;16.60;;;;;;;11.22;100.00;99921.75;5016244;28;20037;-70
2023/05/09 06:41:24;;;;;;;45.40;29.00;;;;;;;11.23;100.00;99927.03;5029199;28;20029;-71
2023/05/09 06:43:50;;;;;;;27.88;20.05;;;;;;;11.32;100.00;99918.66;5019882;28;20037;-71
2023/05/09 06:46:16;;;;;;;27.77;19.33;;;;;;;11.38;100.00;99925.75;5016599;28;20469;-71
2023/05/09 06:48:41;;;;;;;39.17;19.05;;;;;;;11.44;100.00;99934.81;5012040;28;20022;-70
2023/05/09 06:51:08;;;;;;;32.47;20.55;;;;;;;11.45;100.00;99927.22;5022091;28;20038;-70
2023/05/09 06:53:33;;;;;;;29.90;19.65;;;;;;;11.38;100.00;99931.34;5013928;28;20025;-72
2023/05/09 06:55:59;;;;;;;23.83;18.42;;;;;;;11.42;100.00;99931.50;5028293;28;20018;-71
2023/05/09 06:58:26;;;;;;;27.25;19.00;;;;;;;11.46;100.00;99940.06;5028025;28;20030;-71
2023/05/09 07:00:52;;;;;;;26.23;18.65;;;;;;;11.39;100.00;99937.75;5016959;28;20037;-71
2023/05/09 07:03:17;;;;;;;35.90;18.95;;;;;;;11.40;100.00;99933.00;5019051;28;20037;-71
2023/05/09 07:05:43;;;;;;;30.20;18.20;;;;;;;11.39;100.00;99937.75;5014665;28;20037;-71
2023/05/09 07:08:08;;;;;;;34.38;21.33;;;;;;;11.45;100.00;99930.84;5022952;28;20096;-71
2023/05/09 07:10:34;;;;;;;31.55;19.95;;;;;;;11.41;100.00;99935.47;5013197;28;20034;-70
2023/05/09 07:12:59;;;;;;;28.73;20.15;;;;;;;11.52;100.00;99944.34;5027023;28;20068;-70
2023/05/09 07:15:26;;;;;;;36.30;21.52;;;;;;;11.52;100.00;99944.34;5013204;28;20025;-70
2023/05/09 07:17:52;;;;;;;32.38;23.60;;;;;;;11.50;100.00;99938.28;5015771;28;20080;-70
2023/05/09 07:20:17;;;;;;;34.65;24.45;;;;;;;11.41;100.00;99943.03;5017018;28;20025;-70
2023/05/09 07:22:43;;;;;;;33.72;23.15;;;;;;;11.39;100.00;99932.16;5017931;28;20345;-70
2023/05/09 07:25:09;;;;;;;38.83;24.85;;;;;;;11.42;100.00;99925.91;5016756;28;20041;-70
2023/05/09 07:27:35;;;;;;;40.10;26.88;;;;;;;11.51;100.00;99935.13;5023131;28;20031;-70
2023/05/09 07:30:04;;;;;;;41.00;27.02;;;;;;;11.51;100.00;99937.09;5017437;28;20064;-70
2023/05/09 07:32:30;;;;;;;39.47;27.33;;;;;;;11.54;100.00;99924.44;5014551;28;20053;-70
2023/05/09 07:34:55;;;;;;;41.70;26.20;;;;;;;11.53;100.00;99937.59;5013421;28;20079;-70
2023/05/09 07:37:21;;;;;;;42.75;26.98;;;;;;;11.54;100.00;99928.03;5012080;28;20030;-70
2023/05/09 07:39:46;;;;;;;40.45;26.08;;;;;;;11.55;100.00;99940.09;5011507;28;20029;-70
2023/05/09 07:42:12;;;;;;;39.50;24.25;;;;;;;11.55;100.00;99932.47;5025289;28;20049;-70
2023/05/09 07:44:38;;;;;;;51.03;32.70;;;;;;;11.53;100.00;99940.41;5029532;28;20033;-70
2023/05/09 07:47:04;;;;;;;77.50;55.58;;;;;;;11.54;100.00;99942.03;5027799;28;20052;-70
2023/05/09 07:49:32;;;;;;;154.70;113.07;;;;;;;11.49;100.00;99931.03;5030175;28;20049;-70
2023/05/09 07:51:58;;;;;;;64.25;43.97;;;;;;;11.58;100.00;99939.41;5019519;28;20026;-70
2023/05/09 07:54:23;;;;;;;47.15;33.63;;;;;;;11.58;100.00;99939.41;5013842;28;20022;-70
2023/05/09 07:56:49;;;;;;;73.07;55.53;;;;;;;11.61;100.00;99941.53;5013377;28;20483;-70
2023/05/09 07:59:15;;;;;;;41.75;30.13;;;;;;;11.62;100.00;99940.38;5025211;28;20030;-72
2023/05/09 08:01:41;;;;;;;273.45;190.30;;;;;;;11.59;100.00;99941.91;5028805;28;20097;-70
2023/05/09 08:04:07;;;;;;;62.90;41.03;;;;;;;11.64;100.00;99944.50;5027253;28;20079;-71
2023/05/09 08:06:33;;;;;;;52.40;34.15;;;;;;;11.78;100.00;99949.13;5011392;28;20053;-70
2023/05/09 08:08:59;;;;;;;49.47;34.40;;;;;;;11.81;100.00;99945.63;5015449;28;20045;-70
2023/05/09 08:11:25;;;;;;;43.08;29.17;;;;;;;11.75;100.00;99932.97;5024228;28;20080;-70
2023/05/09 08:13:50;;;;;;;51.92;29.35;;;;;;;11.87;100.00;99943.50;5014320;28;20042;-70
2023/05/09 08:16:16;;;;;;;46.42;29.98;;;;;;;11.83;100.00;99948.13;5014812;28;20034;-70
2023/05/09 08:18:45;;;;;;;50.13;30.85;;;;;;;11.73;100.00;99952.91;5023994;28;20055;-70
2023/05/09 08:21:11;;;;;;;47.47;30.92;;;;;;;11.69;100.00;99945.50;5010417;28;20481;-70
2023/05/09 08:23:36;;;;;;;47.95;28.20;;;;;;;11.58;100.00;99945.81;5013090;28;20021;-71
2023/05/09 08:26:02;;;;;;;50.40;29.77;;;;;;;11.60;100.00;99948.31;5019257;28;20033;-70
2023/05/09 08:28:28;;;;;;;37.22;24.73;;;;;;;11.57;100.00;99944.19;5019208;28;20412;-71
2023/05/09 08:30:55;;;;;;;46.33;27.75;;;;;;;11.57;100.00;99940.56;5029382;28;20108;-71
2023/05/09 08:33:21;;;;;;;86.30;55.70;;;;;;;11.70;100.00;99944.34;5015380;28;20128;-71
2023/05/09 08:35:50;;;;;;;99.10;57.60;;;;;;;11.69;100.00;99953.91;5016570;28;20117;-71
2023/05/09 08:38:16;;;;;;;73.07;53.10;;;;;;;11.70;100.00;99947.13;5014365;28;20068;-71
2023/05/09 08:40:41;;;;;;;63.67;46.22;;;;;;;11.70;100.00;99941.53;5011485;28;20057;-71
2023/05/09 08:43:07;;;;;;;71.25;46.15;;;;;;;11.74;100.00;99943.34;5015816;28;20025;-71
2023/05/09 08:45:50;;;;;;;50.63;32.20;;;;;;;11.78;100.00;99946.31;5012105;28;20026;-71
2023/05/09 08:48:17;;;;;;;50.55;32.88;;;;;;;11.77;100.00;99939.91;5010075;28;20050;-71
2023/05/09 08:50:43;;;;;;;51.70;32.75;;;;;;;11.71;100.00;99941.22;5023174;28;20044;-71
2023/05/09 08:53:10;;;;;;;51.47;33.67;;;;;;;11.76;100.00;99937.41;5024697;28;20422;-71
2023/05/09 08:55:37;;;;;;;50.25;30.67;;;;;;;11.75;100.00;99930.97;5010030;28;20025;-70
2023/05/09 08:58:03;;;;;;;44.97;29.88;;;;;;;11.78;100.00;99943.50;5014755;28;20030;-73
2023/05/09 09:00:30;;;;;;;48.17;33.17;;;;;;;11.82;100.00;99929.66;5009872;28;20092;-69
2023/05/09 09:02:59;;;;;;;56.72;31.58;;;;;;;11.87;100.00;99937.88;5030056;28;20455;-70
2023/05/09 09:05:25;;;;;;;55.60;35.37;;;;;;;11.89;100.00;99944.81;5027317;28;20428;-69
2023/05/09 09:07:51;;;;;;;60.50;34.60;;;;;;;11.84;100.00;99931.00;5011035;28;20104;-70
2023/05/09 09:10:19;;;;;;;57.38;37.50;;;;;;;11.93;100.00;99931.78;5019646;28;20033;-70
2023/05/09 09:12:45;;;;;;;51.20;32.63;;;;;;;11.99;100.00;99934.41;5030484;28;20033;-70
2023/05/09 09:15:16;;;;;;;48.85;32.30;;;;;;;12.00;100.00;99927.66;5030804;28;20030;-71
2023/05/09 09:17:46;;;;;;;61.83;38.08;;;;;;;12.09;100.00;99925.69;5030659;28;20038;-71
2023/05/09 09:20:15;;;;;;;57.03;33.67;;;;;;;12.17;100.00;99926.81;5020381;28;20468;-71
2023/05/09 09:22:42;;;;;;;50.50;30.90;;;;;;;12.21;100.00;99925.81;5030976;28;20037;-72
2023/05/09 09:25:08;;;;;;;51.35;33.63;;;;;;;12.34;100.00;99925.94;5028358;28;20484;-71
2023/05/09 09:27:34;;;;;;;52.83;33.83;;;;;;;12.49;100.00;99933.78;5030335;28;20026;-71
2023/05/09 09:30:10;;;;;;;52.00;34.67;;;;;;;12.43;100.00;99932.34;5020785;28;20032;-71
2023/05/09 09:32:36;;;;;;;50.15;31.55;;;;;;;12.41;100.00;99933.81;5010853;28;20084;-72
2023/05/09 09:35:09;;;;;;;60.70;34.60;;;;;;;12.43;100.00;99932.34;5020113;28;20029;-72
2023/05/09 09:37:38;;;;;;;57.58;35.63;;;;;;;12.26;100.00;99930.41;5017228;28;20030;-71
2023/05/09 09:40:10;;;;;;;52.17;34.90;;;;;;;12.31;100.00;99938.63;5018380;28;20037;-71
2023/05/09 09:42:43;;;;;;;50.67;30.98;;;;;;;12.41;100.00;99928.22;5020939;28;20088;-72
2023/05/09 09:45:14;;;;;;;46.25;30.00;;;;;;;12.23;100.00;99933.88;5014893;28;20120;-70
2023/05/09 09:47:42;;;;;;;46.35;29.30;;;;;;;12.33;100.00;99935.50;5014261;28;20534;-72
2023/05/09 09:50:13;;;;;;;49.15;30.48;;;;;;;12.20;100.00;99932.56;5025713;28;20457;-71
2023/05/09 09:52:42;;;;;;;40.47;25.23;;;;;;;12.23;100.00;99933.06;5026427;28;20080;-71
2023/05/09 09:55:08;;;;;;;40.35;25.92;;;;;;;12.38;100.00;99932.50;5022630;28;20036;-72
2023/05/09 09:57:38;;;;;;;37.20;24.60;;;;;;;12.28;100.00;99928.09;5033334;28;20025;-70
2023/05/09 10:00:05;;;;;;;42.08;27.75;;;;;;;12.39;100.00;99925.72;5029321;28;20470;-72
2023/05/09 10:02:31;;;;;;;46.05;28.42;;;;;;;12.40;100.00;99934.97;5032127;28;20328;-72
2023/05/09 10:05:05;;;;;;;48.50;25.33;;;;;;;12.41;100.00;99942.22;5027406;28;20029;-71
2023/05/09 10:07:34;;;;;;;53.95;29.77;;;;;;;12.33;100.00;99932.69;5031828;28;20108;-73
2023/05/09 10:10:04;;;;;;;41.97;29.05;;;;;;;12.43;100.00;99934.31;5030620;28;20381;-71
2023/05/09 10:12:35;;;;;;;42.80;25.67;;;;;;;12.38;100.00;99934.50;5031790;28;20021;-69
2023/05/09 10:15:08;;;;;;;46.10;26.80;;;;;;;12.38;100.00;99940.91;5028224;28;20404;-70
2023/05/09 10:17:33;;;;;;;46.50;28.77;;;;;;;12.27;100.00;99934.03;5018444;28;20095;-74
2023/05/09 10:20:03;;;;;;;45.60;28.33;;;;;;;12.35;100.00;99936.00;5018271;28;20029;-71
2023/05/09 10:22:30;;;;;;;51.67;31.70;;;;;;;12.45;100.00;99935.63;5026020;28;20065;-73
2023/05/09 10:25:05;;;;;;;39.85;25.05;;;;;;;12.42;100.00;99936.28;5026528;28;20500;-72
2023/05/09 10:27:34;;;;;;;37.58;25.80;;;;;;;12.44;100.00;99930.34;5029392;28;20425;-73
2023/05/09 10:30:10;;;;;;;35.97;24.57;;;;;;;12.49;100.00;99928.16;5031639;28;20707;-73
2023/05/09 10:32:45;;;;;;;39.70;24.60;;;;;;;12.44;100.00;99933.97;5020298;28;20033;-71
2023/05/09 10:35:12;;;;;;;37.45;24.38;;;;;;;12.61;100.00;99932.25;5013768;28;20022;-74
2023/05/09 10:37:38;;;;;;;38.88;25.27;;;;;;;12.63;100.00;99932.72;5017737;28;20029;-74
2023/05/09 10:40:05;;;;;;;38.88;26.25;;;;;;;12.70;100.00;99933.03;5024511;28;20583;-71
2023/05/09 10:42:31;;;;;;;40.22;25.83;;;;;;;12.65;100.00;99927.59;5022797;28;20025;-71
2023/05/09 10:44:57;;;;;;;40.78;24.02;;;;;;;12.71;100.00;99934.66;5020643;28;20106;-71
2023/05/09 10:47:26;;;;;;;35.47;23.27;;;;;;;12.49;100.00;99927.34;5016613;28;20079;-71
2023/05/09 10:49:53;;;;;;;49.90;26.67;;;;;;;12.50;100.00;99926.19;5013248;28;20097;-71
2023/05/09 10:52:22;;;;;;;36.17;24.70;;;;;;;12.55;100.00;99925.16;5014594;28;20133;-73
2023/05/09 10:55:03;;;;;;;40.72;25.80;;;;;;;12.49;100.00;99919.75;5031426;28;20033;-72
2023/05/09 10:57:31;;;;;;;42.10;27.45;;;;;;;12.67;100.00;99930.91;5023592;28;20025;-71
2023/05/09 10:59:57;;;;;;;42.67;26.10;;;;;;;12.64;100.00;99923.97;5020074;28;20072;-71
2023/05/09 11:02:31;;;;;;;42.22;26.83;;;;;;;12.61;98.88;99929.44;5020835;28;20045;-72
2023/05/09 11:05:16;;;;;;;52.78;29.75;;;;;;;12.74;99.64;99927.56;5025514;28;20025;-72
2023/05/09 11:07:42;;;;;;;44.63;27.48;;;;;;;12.82;99.03;99923.88;5032891;28;20393;-73
2023/05/09 11:10:08;;;;;;;45.67;26.90;;;;;;;12.87;97.70;99922.84;5030422;28;20056;-70